createdAt,value
2022-08-08T00:01:21.169Z,20.50
2022-08-08T00:04:37.939Z,19.90
2022-08-08T00:07:21.724Z,19.50
2022-08-08T00:10:17.749Z,22.58
2022-08-08T00:13:20.931Z,16.40
2022-08-08T00:16:24.317Z,19.00
2022-08-08T00:18:54.344Z,22.63
2022-08-08T00:21:39.687Z,17.50
2022-08-08T00:24:34.674Z,19.75
2022-08-08T00:27:07.102Z,20.15
2022-08-08T00:29:47.085Z,18.40
2022-08-08T00:32:38.830Z,16.98
2022-08-08T00:35:28.528Z,20.80
2022-08-08T00:38:07.659Z,21.20
2022-08-08T00:41:54.595Z,19.92
2022-08-08T00:44:57.755Z,17.45
2022-08-08T00:48:05.114Z,17.73
2022-08-08T00:51:15.206Z,24.10
2022-08-08T00:54:13.472Z,21.90
2022-08-08T00:57:08.680Z,16.67
2022-08-08T01:00:09.569Z,23.13
2022-08-08T01:03:57.572Z,21.52
2022-08-08T01:06:39.325Z,22.10
2022-08-08T01:09:35.641Z,17.48
2022-08-08T01:12:37.550Z,18.45
2022-08-08T01:15:50.317Z,18.60
2022-08-08T01:18:53.594Z,21.08
2022-08-08T01:22:12.234Z,19.45
2022-08-08T01:25:00.675Z,18.98
2022-08-08T01:27:46.185Z,21.58
2022-08-08T01:31:00.127Z,21.05
2022-08-08T01:34:00.743Z,21.50
2022-08-08T01:37:13.864Z,19.27
2022-08-08T01:40:00.091Z,19.77
2022-08-08T01:42:53.349Z,20.17
2022-08-08T01:45:45.583Z,20.23
2022-08-08T01:48:43.820Z,19.15
2022-08-08T01:52:32.556Z,19.88
2022-08-08T01:55:26.039Z,22.67
2022-08-08T01:58:11.642Z,13.80
2022-08-08T02:01:02.890Z,23.25
2022-08-08T02:03:54.886Z,21.60
2022-08-08T02:07:04.061Z,20.52
2022-08-08T02:10:03.306Z,21.10
2022-08-08T02:12:42.754Z,18.17
2022-08-08T02:15:21.934Z,22.45
2022-08-08T02:18:10.302Z,20.58
2022-08-08T02:21:34.114Z,18.27
2022-08-08T02:27:19.009Z,22.08
2022-08-08T02:30:13.093Z,20.15
2022-08-08T02:33:10.190Z,23.00
2022-08-08T02:36:02.652Z,32.80
2022-08-08T02:38:51.492Z,28.08
2022-08-08T02:42:04.074Z,27.80
2022-08-08T02:44:58.017Z,26.80
2022-08-08T02:47:33.819Z,26.33
2022-08-08T02:50:20.464Z,23.98
2022-08-08T02:53:17.208Z,21.95
2022-08-08T02:56:08.553Z,23.30
2022-08-08T02:59:17.260Z,26.00
2022-08-08T03:02:30.239Z,22.25
2022-08-08T03:05:03.296Z,26.17
2022-08-08T03:07:57.635Z,23.27
2022-08-08T03:11:05.245Z,21.83
2022-08-08T03:16:01.148Z,21.45
2022-08-08T03:17:08.509Z,23.70
2022-08-08T03:20:03.764Z,24.50
2022-08-08T03:22:51.023Z,21.75
2022-08-08T03:25:35.845Z,20.67
2022-08-08T03:30:36.538Z,22.42
2022-08-08T03:33:55.511Z,23.65
2022-08-08T03:36:19.482Z,23.98
2022-08-08T03:38:58.463Z,19.65
2022-08-08T03:42:12.651Z,21.30
2022-08-08T03:44:34.526Z,21.60
2022-08-08T03:47:14.075Z,18.10
2022-08-08T03:50:00.188Z,16.27
2022-08-08T03:52:35.349Z,19.42
2022-08-08T03:55:55.242Z,16.92
2022-08-08T03:58:09.598Z,21.77
2022-08-08T04:01:01.958Z,13.48
2022-08-08T04:04:00.295Z,15.25
2022-08-08T04:06:29.357Z,14.93
2022-08-08T04:09:06.779Z,20.52
2022-08-08T04:11:58.015Z,13.98
2022-08-08T04:14:34.072Z,14.05
2022-08-08T04:17:07.151Z,11.13
2022-08-08T04:19:50.463Z,11.52
2022-08-08T04:22:19.118Z,9.95
2022-08-08T04:24:51.354Z,11.20
2022-08-08T04:27:42.617Z,9.90
2022-08-08T04:30:18.590Z,11.30
2022-08-08T04:32:50.980Z,10.20
2022-08-08T04:35:22.556Z,10.48
2022-08-08T04:37:51.951Z,11.60
2022-08-08T04:40:24.071Z,10.68
2022-08-08T04:42:56.961Z,9.97
2022-08-08T04:45:33.475Z,9.55
2022-08-08T04:48:01.722Z,12.18
2022-08-08T04:50:38.352Z,7.75
2022-08-08T04:53:52.395Z,11.68
2022-08-08T04:55:58.844Z,8.13
2022-08-08T04:58:30.508Z,10.32
2022-08-08T05:00:58.533Z,9.77
2022-08-08T05:04:09.598Z,11.90
2022-08-08T05:06:25.257Z,12.18
2022-08-08T05:08:54.284Z,8.50
2022-08-08T05:11:26.194Z,10.68
2022-08-08T05:14:01.411Z,10.35
2022-08-08T05:16:55.525Z,15.73
2022-08-08T05:20:12.406Z,13.43
2022-08-08T05:22:10.230Z,12.02
2022-08-08T05:24:41.669Z,14.55
2022-08-08T05:27:15.801Z,13.15
2022-08-08T05:29:43.124Z,13.27
2022-08-08T05:32:12.638Z,9.45
2022-08-08T05:34:46.448Z,11.95
2022-08-08T05:39:53.025Z,11.18
2022-08-08T05:42:51.759Z,7.60
2022-08-08T05:45:30.567Z,11.35
2022-08-08T05:48:08.638Z,8.32
2022-08-08T05:50:38.696Z,8.20
2022-08-08T05:53:55.401Z,7.90
2022-08-08T05:56:10.002Z,8.25
2022-08-08T05:58:54.034Z,8.35
2022-08-08T06:01:56.358Z,6.00
2022-08-08T06:04:23.476Z,7.18
2022-08-08T06:07:01.941Z,6.57
2022-08-08T06:10:00.267Z,6.80
2022-08-08T06:12:29.712Z,8.35
2022-08-08T06:15:07.739Z,8.45
2022-08-08T06:17:51.079Z,7.57
2022-08-08T06:20:28.904Z,8.00
2022-08-08T06:22:57.838Z,7.78
2022-08-08T06:26:35.963Z,9.10
2022-08-08T06:28:34.996Z,7.95
2022-08-08T06:31:05.435Z,11.38
2022-08-08T06:34:26.150Z,9.23
2022-08-08T06:36:53.332Z,8.02
2022-08-08T06:39:25.838Z,7.22
2022-08-08T06:42:02.632Z,8.43
2022-08-08T06:44:48.687Z,7.68
2022-08-08T06:47:15.705Z,7.95
2022-08-08T06:49:55.988Z,9.70
2022-08-08T06:52:27.746Z,7.35
2022-08-08T06:54:58.675Z,6.85
2022-08-08T06:57:29.462Z,10.93
2022-08-08T07:00:14.610Z,8.35
2022-08-08T07:02:45.827Z,8.45
2022-08-08T07:05:20.648Z,8.68
2022-08-08T07:07:52.760Z,6.90
2022-08-08T07:10:25.935Z,7.43
2022-08-08T07:12:58.647Z,9.20
2022-08-08T07:16:04.649Z,7.90
2022-08-08T07:18:51.857Z,7.70
2022-08-08T07:21:30.999Z,9.02
2022-08-08T07:24:04.809Z,8.93
2022-08-08T07:26:46.930Z,8.85
2022-08-08T07:29:20.649Z,8.48
2022-08-08T07:32:10.323Z,9.70
2022-08-08T07:35:00.170Z,9.27
2022-08-08T07:37:56.444Z,7.03
2022-08-08T07:40:48.433Z,9.88
2022-08-08T07:43:35.247Z,6.78
2022-08-08T07:46:23.598Z,8.48
2022-08-08T07:48:56.964Z,9.30
2022-08-08T07:51:44.972Z,7.82
2022-08-08T07:54:32.723Z,9.90
2022-08-08T07:57:09.015Z,8.70
2022-08-08T07:59:55.882Z,7.05
2022-08-08T08:02:37.092Z,11.13
2022-08-08T08:05:20.478Z,10.52
2022-08-08T08:07:55.761Z,6.72
2022-08-08T08:10:33.324Z,7.13
2022-08-08T08:13:25.443Z,8.80
2022-08-08T08:16:17.072Z,7.72
2022-08-08T08:18:56.108Z,7.20
2022-08-08T08:21:44.431Z,10.55
2022-08-08T08:24:32.488Z,7.45
2022-08-08T08:27:03.647Z,7.60
2022-08-08T08:29:33.383Z,11.30
2022-08-08T08:32:05.684Z,7.30
2022-08-08T08:34:35.901Z,9.00
2022-08-08T08:37:07.999Z,6.45
2022-08-08T08:39:39.226Z,6.10
2022-08-08T08:42:29.083Z,5.05
2022-08-08T08:45:21.097Z,5.75
2022-08-08T08:47:54.479Z,5.25
2022-08-08T08:50:32.472Z,5.75
2022-08-08T08:53:55.360Z,5.60
2022-08-08T08:56:07.791Z,6.68
2022-08-08T08:58:46.931Z,5.22
2022-08-08T09:01:24.305Z,5.57
2022-08-08T09:03:55.608Z,5.32
2022-08-08T09:06:33.607Z,5.75
2022-08-08T09:09:40.025Z,5.90
2022-08-08T09:12:23.129Z,5.70
2022-08-08T09:14:53.847Z,7.43
2022-08-08T09:17:40.711Z,7.07
2022-08-08T09:21:57.641Z,8.47
2022-08-08T09:23:04.461Z,5.80
2022-08-08T09:25:57.831Z,5.20
2022-08-08T09:28:35.572Z,4.80
2022-08-08T09:31:15.619Z,5.32
2022-08-08T09:34:15.521Z,4.85
2022-08-08T09:36:40.335Z,6.55
2022-08-08T09:39:21.815Z,4.32
2022-08-08T09:42:20.044Z,5.07
2022-08-08T09:45:04.061Z,5.43
2022-08-08T09:48:05.120Z,4.97
2022-08-08T09:50:32.470Z,6.00
2022-08-08T09:53:23.656Z,4.18
2022-08-08T09:56:04.113Z,4.10
2022-08-08T09:58:44.545Z,4.13
2022-08-08T10:01:14.453Z,4.63
2022-08-08T10:03:46.066Z,4.75
2022-08-08T10:06:26.703Z,4.93
2022-08-08T10:08:56.844Z,4.35
2022-08-08T10:12:26.664Z,4.72
2022-08-08T10:14:28.606Z,6.28
2022-08-08T10:16:58.922Z,5.03
2022-08-08T10:19:46.128Z,5.13
2022-08-08T10:22:27.496Z,6.47
2022-08-08T10:25:15.479Z,4.55
2022-08-08T10:27:43.644Z,5.13
2022-08-08T10:30:16.794Z,4.43
2022-08-08T10:33:00.691Z,5.15
2022-08-08T10:36:09.452Z,5.20
2022-08-08T10:38:20.227Z,5.13
2022-08-08T10:40:52.106Z,5.70
2022-08-08T10:43:22.978Z,5.65
2022-08-08T10:45:56.913Z,4.70
2022-08-08T10:48:59.162Z,4.90
2022-08-08T10:51:47.269Z,3.90
2022-08-08T10:54:24.713Z,4.22
2022-08-08T10:56:59.944Z,6.00
2022-08-08T10:59:27.129Z,4.75
2022-08-08T11:01:58.632Z,4.87
2022-08-08T11:04:39.292Z,5.20
2022-08-08T11:07:06.635Z,4.57
2022-08-08T11:09:34.654Z,4.85
2022-08-08T11:12:13.192Z,4.93
2022-08-08T11:15:02.447Z,5.13
2022-08-08T11:18:01.118Z,4.97
2022-08-08T11:20:28.190Z,5.00
2022-08-08T11:22:57.963Z,4.93
2022-08-08T11:25:53.316Z,7.00
2022-08-08T11:28:15.598Z,5.38
2022-08-08T11:30:50.317Z,8.73
2022-08-08T11:33:51.423Z,5.32
2022-08-08T11:36:14.451Z,5.95
2022-08-08T11:38:54.794Z,6.82
2022-08-08T11:41:24.447Z,6.60
2022-08-08T11:43:53.688Z,6.80
2022-08-08T11:46:24.614Z,6.10
2022-08-08T11:48:52.887Z,4.88
2022-08-08T11:51:29.470Z,5.38
2022-08-08T11:54:09.715Z,6.95
2022-08-08T11:56:55.953Z,7.43
2022-08-08T12:00:01.536Z,5.43
2022-08-08T12:02:32.372Z,5.97
2022-08-08T12:05:12.281Z,5.68
2022-08-08T12:07:54.061Z,5.00
2022-08-08T12:13:10.589Z,5.85
2022-08-08T12:15:42.204Z,5.40
2022-08-08T12:18:20.657Z,8.10
2022-08-08T12:20:50.757Z,7.20
2022-08-08T12:23:40.374Z,9.20
2022-08-08T12:26:27.315Z,7.32
2022-08-08T12:28:58.911Z,7.18
2022-08-08T12:31:39.316Z,7.43
2022-08-08T12:34:39.620Z,6.57
2022-08-08T12:37:11.274Z,5.90
2022-08-08T12:40:00.602Z,7.22
2022-08-08T12:42:27.396Z,6.38
2022-08-08T12:45:53.923Z,6.38
2022-08-08T12:48:10.096Z,7.47
2022-08-08T12:50:57.212Z,9.85
2022-08-08T12:53:37.629Z,7.75
2022-08-08T12:56:19.373Z,9.80
2022-08-08T12:58:52.208Z,8.85
2022-08-08T13:01:34.394Z,10.73
2022-08-08T13:04:19.389Z,8.10
2022-08-08T13:07:00.514Z,8.07
2022-08-08T13:10:05.300Z,7.22
2022-08-08T13:12:46.883Z,7.10
2022-08-08T13:15:16.787Z,7.20
2022-08-08T13:18:09.078Z,8.13
2022-08-08T13:20:31.276Z,6.65
2022-08-08T13:23:29.968Z,6.32
2022-08-08T13:25:50.435Z,5.55
2022-08-08T13:28:32.244Z,5.82
2022-08-08T13:31:04.495Z,6.90
2022-08-08T13:33:42.469Z,6.63
2022-08-08T13:36:11.132Z,5.78
2022-08-08T13:38:39.879Z,5.75
2022-08-08T13:41:16.855Z,6.60
2022-08-08T13:43:50.880Z,5.90
2022-08-08T13:46:26.960Z,6.47
2022-08-08T13:49:12.056Z,6.80
2022-08-08T13:51:53.998Z,7.80
2022-08-08T13:54:29.359Z,9.27
2022-08-08T13:57:18.528Z,9.05
2022-08-08T14:00:05.476Z,7.45
2022-08-08T14:02:41.255Z,6.50
2022-08-08T14:05:22.423Z,7.70
2022-08-08T14:10:49.841Z,6.65
2022-08-08T14:13:31.044Z,7.05
2022-08-08T14:16:16.048Z,8.07
2022-08-08T14:19:11.002Z,7.32
2022-08-08T14:21:48.869Z,6.63
2022-08-08T14:24:33.486Z,6.15
2022-08-08T14:27:01.776Z,6.80
2022-08-08T14:29:34.485Z,7.82
2022-08-08T14:32:11.829Z,5.80
2022-08-08T14:34:43.641Z,6.65
2022-08-08T14:37:17.771Z,5.85
2022-08-08T14:39:54.185Z,10.23
2022-08-08T14:42:35.820Z,6.93
2022-08-08T14:45:10.011Z,7.63
2022-08-08T14:47:52.328Z,6.90
2022-08-08T14:50:38.847Z,6.32
2022-08-08T14:53:14.488Z,7.60
2022-08-08T14:55:42.929Z,6.45
2022-08-08T14:58:12.040Z,8.35
2022-08-08T15:00:44.946Z,6.38
2022-08-08T15:03:15.925Z,6.70
2022-08-08T15:05:53.301Z,8.55
2022-08-08T15:08:34.778Z,6.15
2022-08-08T15:11:11.409Z,7.10
2022-08-08T15:14:01.653Z,6.43
2022-08-08T15:16:27.921Z,6.82
2022-08-08T15:18:55.258Z,6.80
2022-08-08T15:21:22.186Z,6.40
2022-08-08T15:23:52.646Z,7.60
2022-08-08T15:26:21.129Z,6.03
2022-08-08T15:28:54.229Z,5.53
2022-08-08T15:31:55.527Z,5.95
2022-08-08T15:34:18.770Z,5.80
2022-08-08T15:36:56.766Z,4.25
2022-08-08T15:39:23.622Z,5.30
2022-08-08T15:41:52.726Z,6.82
2022-08-08T15:44:21.037Z,5.18
2022-08-08T15:46:50.870Z,5.60
2022-08-08T15:49:20.769Z,7.28
2022-08-08T15:51:54.583Z,5.40
2022-08-08T15:54:39.044Z,5.15
2022-08-08T15:57:08.883Z,5.78
2022-08-08T16:00:05.861Z,5.47
2022-08-08T16:02:30.431Z,6.55
2022-08-08T16:05:01.461Z,7.63
2022-08-08T16:07:51.933Z,6.15
2022-08-08T16:13:11.481Z,5.53
2022-08-08T16:13:34.467Z,5.38
2022-08-08T16:15:57.971Z,5.75
2022-08-08T16:18:33.137Z,6.00
2022-08-08T16:21:01.156Z,4.63
2022-08-08T16:23:32.402Z,6.82
2022-08-08T16:26:04.585Z,5.53
2022-08-08T16:28:41.461Z,5.43
2022-08-08T16:31:09.421Z,6.32
2022-08-08T16:33:40.520Z,5.68
2022-08-08T16:36:12.833Z,6.63
2022-08-08T16:38:46.456Z,5.97
2022-08-08T16:41:22.698Z,7.07
2022-08-08T16:43:52.038Z,7.45
2022-08-08T16:46:36.229Z,7.05
2022-08-08T16:49:07.799Z,6.82
2022-08-08T16:55:02.050Z,7.75
2022-08-08T16:55:19.334Z,5.65
2022-08-08T16:58:11.883Z,8.30
2022-08-08T17:00:08.623Z,7.88
2022-08-08T17:02:39.693Z,6.35
2022-08-08T17:05:12.970Z,6.70
2022-08-08T17:07:42.025Z,6.78
2022-08-08T17:10:11.541Z,10.02
2022-08-08T17:12:47.043Z,9.80
2022-08-08T17:15:20.734Z,10.68
2022-08-08T17:18:02.847Z,11.88
2022-08-08T17:20:39.543Z,10.82
2022-08-08T17:23:17.750Z,8.07
2022-08-08T17:25:55.044Z,8.95
2022-08-08T17:28:30.719Z,7.70
2022-08-08T17:31:44.106Z,9.95
2022-08-08T17:34:48.660Z,11.77
2022-08-08T17:36:55.155Z,13.52
2022-08-08T17:40:04.656Z,17.52
2022-08-08T17:42:15.561Z,10.55
2022-08-08T17:44:44.055Z,13.60
2022-08-08T17:47:16.324Z,9.73
2022-08-08T17:49:53.115Z,12.38
2022-08-08T17:52:28.483Z,11.70
2022-08-08T17:54:56.881Z,12.60
2022-08-08T17:57:24.893Z,13.32
2022-08-08T17:59:58.544Z,11.13
2022-08-08T18:02:31.032Z,15.95
2022-08-08T18:04:58.754Z,13.45
2022-08-08T18:08:02.223Z,20.38
2022-08-08T18:10:15.480Z,18.98
2022-08-08T18:12:44.430Z,20.05
2022-08-08T18:15:13.570Z,20.70
2022-08-08T18:18:27.434Z,18.88
2022-08-08T18:20:42.941Z,20.10
2022-08-08T18:23:15.061Z,19.35
2022-08-08T18:25:43.308Z,23.13
2022-08-08T18:28:13.459Z,25.40
2022-08-08T18:30:42.780Z,18.73
2022-08-08T18:33:36.278Z,25.90
2022-08-08T18:36:02.758Z,22.30
2022-08-08T18:38:31.100Z,19.95
2022-08-08T18:40:59.399Z,34.35
2022-08-08T18:43:42.609Z,34.33
2022-08-08T18:46:56.558Z,32.00
2022-08-08T18:48:58.379Z,34.67
2022-08-08T18:51:53.856Z,30.55
2022-08-08T18:54:22.507Z,31.75
2022-08-08T18:56:57.156Z,30.67
2022-08-08T18:59:24.408Z,32.10
2022-08-08T19:02:27.578Z,29.63
2022-08-08T19:04:42.670Z,27.92
2022-08-08T19:07:10.602Z,31.33
2022-08-08T19:09:48.978Z,33.88
2022-08-08T19:12:26.718Z,34.00
2022-08-08T19:14:53.747Z,24.52
2022-08-08T19:17:28.967Z,36.05
2022-08-08T19:20:09.028Z,32.30
2022-08-08T19:22:36.423Z,41.80
2022-08-08T19:26:02.324Z,36.78
2022-08-08T19:27:57.497Z,47.17
2022-08-08T19:30:27.198Z,41.80
2022-08-08T19:33:00.773Z,50.95
2022-08-08T19:35:44.045Z,55.25
2022-08-08T19:38:17.242Z,53.70
2022-08-08T19:40:54.601Z,55.13
2022-08-08T19:43:28.357Z,55.17
2022-08-08T19:48:29.336Z,57.95
2022-08-08T19:50:59.071Z,59.03
2022-08-08T19:53:54.203Z,59.47
2022-08-08T19:56:13.803Z,62.28
2022-08-08T19:58:43.302Z,57.75
2022-08-08T20:01:22.717Z,55.30
2022-08-08T20:04:00.988Z,59.88
2022-08-08T20:06:29.678Z,55.50
2022-08-08T20:08:56.826Z,60.20
2022-08-08T20:11:24.479Z,60.95
2022-08-08T20:14:32.212Z,55.97
2022-08-08T20:16:39.631Z,54.80
2022-08-08T20:19:08.817Z,52.72
2022-08-08T20:21:38.093Z,49.17
2022-08-08T20:24:07.791Z,51.67
2022-08-08T20:26:38.409Z,52.70
2022-08-08T20:29:08.829Z,46.92
2022-08-08T20:32:08.066Z,49.30
2022-08-08T20:34:29.944Z,47.40
2022-08-08T20:37:03.109Z,54.08
2022-08-08T20:39:39.116Z,58.13
2022-08-08T20:42:28.224Z,49.25
2022-08-08T20:44:56.790Z,52.28
2022-08-08T20:47:24.068Z,51.25
2022-08-08T20:49:54.482Z,49.72
2022-08-08T20:52:25.937Z,47.50
2022-08-08T20:54:52.732Z,50.97
2022-08-08T20:57:20.998Z,50.75
2022-08-08T20:59:48.716Z,47.53
2022-08-08T21:02:25.391Z,40.22
2022-08-08T21:05:00.546Z,43.20
2022-08-08T21:07:47.998Z,41.92
2022-08-08T21:10:17.926Z,47.30
2022-08-08T21:12:52.956Z,44.85
2022-08-08T21:16:04.610Z,43.35
2022-08-08T21:18:09.739Z,44.60
2022-08-08T21:20:39.092Z,43.17
2022-08-08T21:23:09.185Z,47.03
2022-08-08T21:25:36.786Z,47.40
2022-08-08T21:28:14.954Z,43.30
2022-08-08T21:30:45.265Z,47.65
2022-08-08T21:33:16.972Z,47.13
2022-08-08T21:36:17.682Z,45.42
2022-08-08T21:38:31.131Z,49.05
2022-08-08T21:40:58.219Z,47.95
2022-08-08T21:43:32.898Z,46.88
2022-08-08T21:48:07.325Z,55.20
2022-08-08T21:48:57.298Z,50.47
2022-08-08T21:54:27.209Z,52.92
2022-08-08T21:54:58.141Z,44.67
2022-08-08T21:57:08.218Z,53.45
2022-08-08T22:00:02.894Z,50.22
2022-08-08T22:02:24.929Z,50.55
2022-08-08T22:04:55.936Z,53.42
2022-08-08T22:07:40.248Z,59.13
2022-08-08T22:10:18.270Z,61.47
2022-08-08T22:13:18.325Z,56.95
2022-08-08T22:15:58.503Z,58.22
2022-08-08T22:18:33.040Z,51.60
2022-08-08T22:21:11.212Z,63.33
2022-08-08T22:23:52.216Z,68.18
2022-08-08T22:26:27.764Z,66.15
2022-08-08T22:29:12.882Z,69.55
2022-08-08T22:31:44.130Z,60.80
2022-08-08T22:34:30.887Z,66.03
2022-08-08T22:36:57.689Z,63.13
2022-08-08T22:39:28.316Z,59.88
2022-08-08T22:42:10.211Z,65.80
2022-08-08T22:44:37.967Z,68.32
2022-08-08T22:47:18.067Z,69.97
2022-08-08T22:49:45.152Z,65.20
2022-08-08T22:52:25.832Z,70.25
2022-08-08T22:54:58.810Z,67.97
2022-08-08T22:57:43.738Z,73.03
2022-08-08T23:00:13.466Z,72.38
2022-08-08T23:02:40.478Z,69.13
2022-08-08T23:05:14.357Z,62.53
2022-08-08T23:07:51.202Z,69.82
2022-08-08T23:10:26.846Z,60.72
2022-08-08T23:12:55.226Z,66.22
2022-08-08T23:16:42.181Z,65.90
2022-08-08T23:18:11.648Z,69.88
2022-08-08T23:20:40.809Z,71.47
2022-08-08T23:23:11.675Z,71.63
2022-08-08T23:25:47.907Z,67.47
2022-08-08T23:28:18.018Z,63.60
2022-08-08T23:30:46.942Z,68.68
2022-08-08T23:33:19.395Z,67.75
2022-08-08T23:36:07.868Z,69.63
2022-08-08T23:38:41.546Z,66.85
2022-08-08T23:41:17.407Z,68.32
2022-08-08T23:43:54.048Z,73.63
2022-08-08T23:49:04.914Z,66.60
2022-08-08T23:49:18.259Z,69.88
2022-08-08T23:52:06.057Z,71.13
2022-08-08T23:54:42.510Z,69.88
2022-08-08T23:57:27.735Z,69.45
